createdAt,value
2022-10-18T00:00:09.894Z,12.06
2022-10-18T00:05:32.722Z,12.02
2022-10-18T00:10:35.419Z,11.98
2022-10-18T00:15:38.247Z,11.94
2022-10-18T00:20:40.885Z,11.91
2022-10-18T00:25:43.555Z,11.89
2022-10-18T00:30:46.353Z,11.91
2022-10-18T00:35:49.094Z,11.87
2022-10-18T00:40:51.753Z,11.80
2022-10-18T00:45:54.476Z,11.77
2022-10-18T00:50:57.520Z,11.73
2022-10-18T00:56:00.262Z,11.70
2022-10-18T01:01:02.964Z,11.70
2022-10-18T01:06:05.981Z,11.67
2022-10-18T01:12:00.801Z,11.68
2022-10-18T01:17:29.290Z,11.65
2022-10-18T01:22:36.587Z,11.67
2022-10-18T01:28:04.784Z,11.65
2022-10-18T01:33:40.703Z,11.62
2022-10-18T01:38:43.536Z,11.61
2022-10-18T01:43:46.905Z,11.60
2022-10-18T01:48:49.741Z,11.57
2022-10-18T01:53:52.564Z,11.54
2022-10-18T01:59:33.320Z,11.49
2022-10-18T02:04:51.436Z,11.41
2022-10-18T02:10:01.742Z,11.36
2022-10-18T02:15:05.231Z,11.32
2022-10-18T02:20:09.876Z,11.26
2022-10-18T02:25:21.255Z,11.23
2022-10-18T02:30:30.239Z,11.21
2022-10-18T02:35:36.699Z,11.14
2022-10-18T02:40:39.656Z,11.10
2022-10-18T02:45:42.393Z,11.08
2022-10-18T02:50:45.063Z,11.04
2022-10-18T02:55:47.744Z,11.01
2022-10-18T03:00:51.050Z,10.97
2022-10-18T03:05:53.683Z,10.93
2022-10-18T03:10:56.354Z,10.88
2022-10-18T03:15:59.095Z,10.81
2022-10-18T03:21:09.854Z,10.68
2022-10-18T03:26:13.675Z,10.46
2022-10-18T03:31:16.491Z,10.28
2022-10-18T03:36:19.164Z,10.15
2022-10-18T03:41:21.821Z,10.07
2022-10-18T03:46:24.557Z,10.03
2022-10-18T03:51:27.316Z,9.98
2022-10-18T03:56:29.971Z,9.95
2022-10-18T04:01:33.053Z,9.92
2022-10-18T04:06:35.805Z,9.94
2022-10-18T04:11:38.485Z,9.91
2022-10-18T04:16:41.277Z,9.90
2022-10-18T04:21:45.327Z,9.94
2022-10-18T04:26:48.066Z,10.03
2022-10-18T04:31:50.699Z,10.11
2022-10-18T04:36:56.632Z,10.14
2022-10-18T04:41:59.326Z,10.18
2022-10-18T04:47:01.979Z,10.21
2022-10-18T04:52:04.927Z,10.25
2022-10-18T04:57:12.127Z,10.27
2022-10-18T05:02:14.891Z,10.12
2022-10-18T05:07:18.004Z,10.02
2022-10-18T05:12:20.674Z,9.94
2022-10-18T05:17:23.350Z,9.94
2022-10-18T05:22:26.108Z,9.94
2022-10-18T05:27:29.254Z,10.03
2022-10-18T05:32:32.084Z,10.10
2022-10-18T05:37:35.440Z,10.20
2022-10-18T05:42:38.919Z,10.29
2022-10-18T05:47:41.725Z,10.37
2022-10-18T05:52:44.413Z,10.38
2022-10-18T05:57:50.630Z,10.39
2022-10-18T06:02:55.246Z,10.50
2022-10-18T06:08:00.871Z,10.73
2022-10-18T06:13:03.529Z,10.95
2022-10-18T06:18:06.722Z,11.12
2022-10-18T06:23:10.378Z,11.34
2022-10-18T06:28:13.346Z,11.55
2022-10-18T06:33:16.397Z,11.71
2022-10-18T06:38:19.109Z,11.89
2022-10-18T06:43:22.374Z,12.08
2022-10-18T06:48:26.049Z,12.31
2022-10-18T06:53:36.256Z,12.47
2022-10-18T06:58:42.190Z,12.64
2022-10-18T07:03:46.102Z,12.84
2022-10-18T07:08:49.769Z,13.01
2022-10-18T07:14:00.351Z,13.15
2022-10-18T07:19:03.360Z,13.28
2022-10-18T07:24:07.243Z,13.48
2022-10-18T07:29:11.660Z,13.62
2022-10-18T07:34:14.428Z,13.74
2022-10-18T07:39:17.113Z,13.92
2022-10-18T07:44:19.880Z,14.11
2022-10-18T07:49:22.637Z,14.29
2022-10-18T07:54:25.288Z,14.43
2022-10-18T07:59:27.987Z,14.67
2022-10-18T08:04:30.669Z,14.87
2022-10-18T08:09:33.333Z,15.05
2022-10-18T08:14:36.170Z,15.20
2022-10-18T08:19:44.654Z,15.32
2022-10-18T08:24:55.668Z,15.38
2022-10-18T08:29:59.883Z,15.43
2022-10-18T08:35:04.532Z,15.50
2022-10-18T08:40:13.395Z,15.55
2022-10-18T08:45:30.020Z,15.59
2022-10-18T08:50:39.296Z,15.68
2022-10-18T08:55:52.607Z,15.79
2022-10-18T09:01:49.776Z,15.92
2022-10-18T09:07:53.848Z,16.12
2022-10-18T09:13:21.523Z,16.30
2022-10-18T09:18:52.270Z,16.53
2022-10-18T09:24:38.623Z,16.75
2022-10-18T09:30:08.372Z,16.98
2022-10-18T09:35:21.870Z,17.19
2022-10-18T09:40:28.270Z,17.31
2022-10-18T09:45:37.833Z,17.43
2022-10-18T09:50:44.577Z,17.55
2022-10-18T09:56:26.202Z,17.61
2022-10-18T10:01:30.526Z,17.56
2022-10-18T10:06:38.932Z,17.55
2022-10-18T10:11:47.423Z,17.60
2022-10-18T10:16:59.273Z,17.65
2022-10-18T10:22:12.992Z,17.69
2022-10-18T10:27:29.640Z,17.79
2022-10-18T10:32:46.643Z,18.00
2022-10-18T10:37:53.428Z,18.39
2022-10-18T10:43:18.270Z,18.89
2022-10-18T10:48:33.633Z,19.16
2022-10-18T10:54:02.974Z,19.31
2022-10-18T10:59:17.667Z,19.46
2022-10-18T11:04:26.444Z,19.57
2022-10-18T11:10:10.904Z,19.71
2022-10-18T11:15:36.660Z,19.85
2022-10-18T11:20:48.217Z,19.84
2022-10-18T11:26:12.507Z,19.77
2022-10-18T11:31:28.274Z,19.90
2022-10-18T11:36:54.637Z,20.07
2022-10-18T11:42:16.131Z,20.25
2022-10-18T11:48:05.939Z,20.29
2022-10-18T11:53:59.349Z,20.34
2022-10-18T11:59:26.781Z,20.31
2022-10-18T12:04:48.997Z,20.34
2022-10-18T12:10:01.260Z,20.40
2022-10-18T12:15:13.846Z,20.61
2022-10-18T12:20:37.070Z,20.46
2022-10-18T12:25:43.563Z,20.39
2022-10-18T12:31:06.403Z,20.42
2022-10-18T12:36:29.069Z,20.56
2022-10-18T12:41:33.971Z,20.71
2022-10-18T12:46:46.987Z,20.68
2022-10-18T12:51:55.022Z,20.73
2022-10-18T12:56:59.572Z,20.82
2022-10-18T13:02:05.436Z,20.76
2022-10-18T13:07:08.313Z,20.60
2022-10-18T13:12:13.818Z,20.38
2022-10-18T13:17:41.489Z,20.11
2022-10-18T13:23:11.849Z,19.89
2022-10-18T13:28:21.478Z,19.64
2022-10-18T13:33:51.913Z,19.50
2022-10-18T13:39:04.911Z,19.39
2022-10-18T13:44:30.462Z,19.32
2022-10-18T13:49:39.191Z,19.26
2022-10-18T13:55:16.402Z,19.19
2022-10-18T14:00:30.097Z,19.02
2022-10-18T14:06:26.768Z,18.85
2022-10-18T14:11:37.241Z,18.77
2022-10-18T14:17:01.102Z,18.76
2022-10-18T14:22:19.246Z,18.68
2022-10-18T14:27:26.719Z,18.62
2022-10-18T14:32:30.558Z,18.51
2022-10-18T14:37:40.845Z,18.48
2022-10-18T14:42:48.408Z,18.40
2022-10-18T14:47:52.213Z,18.28
2022-10-18T14:52:54.836Z,18.16
2022-10-18T14:57:58.602Z,18.07
2022-10-18T15:03:03.771Z,17.95
2022-10-18T15:08:06.692Z,17.79
2022-10-18T15:13:16.435Z,17.59
2022-10-18T15:18:25.591Z,17.40
2022-10-18T15:23:31.289Z,17.19
2022-10-18T15:28:51.053Z,17.01
2022-10-18T15:33:55.552Z,16.93
2022-10-18T15:39:16.744Z,16.84
2022-10-18T15:44:28.011Z,16.70
2022-10-18T15:49:56.231Z,16.55
2022-10-18T15:55:02.000Z,16.38
2022-10-18T16:00:07.678Z,16.20
2022-10-18T16:05:16.693Z,16.01
2022-10-18T16:10:19.442Z,15.58
2022-10-18T16:15:22.080Z,15.20
2022-10-18T16:20:25.113Z,14.92
2022-10-18T16:25:27.851Z,14.61
2022-10-18T16:30:30.623Z,14.40
2022-10-18T16:35:35.628Z,14.27
2022-10-18T16:40:41.139Z,14.14
2022-10-18T16:45:44.417Z,14.10
2022-10-18T16:50:47.911Z,14.06
2022-10-18T16:56:18.409Z,14.06
2022-10-18T17:01:22.438Z,14.07
2022-10-18T17:06:28.260Z,14.01
2022-10-18T17:11:31.052Z,13.96
2022-10-18T17:16:35.220Z,13.95
2022-10-18T17:21:37.960Z,13.92
2022-10-18T17:26:42.518Z,13.84
2022-10-18T17:31:45.228Z,13.80
2022-10-18T17:36:47.974Z,13.76
2022-10-18T17:41:50.988Z,13.74
2022-10-18T17:46:54.122Z,13.72
2022-10-18T17:51:57.118Z,13.41
2022-10-18T17:56:59.814Z,13.12
2022-10-18T18:02:02.553Z,12.91
2022-10-18T18:07:05.215Z,12.77
2022-10-18T18:12:07.830Z,12.70
2022-10-18T18:17:10.503Z,12.65
2022-10-18T18:22:14.153Z,12.65
2022-10-18T18:27:16.786Z,12.64
2022-10-18T18:32:19.507Z,12.62
2022-10-18T18:37:22.309Z,12.60
2022-10-18T18:42:25.106Z,12.60
2022-10-18T18:47:28.158Z,12.63
2022-10-18T18:52:31.205Z,12.72
2022-10-18T18:57:34.352Z,12.71
2022-10-18T19:02:37.236Z,12.73
2022-10-18T19:07:39.946Z,12.71
2022-10-18T19:12:42.681Z,12.68
2022-10-18T19:17:45.438Z,12.67
2022-10-18T19:22:48.215Z,12.69
2022-10-18T19:27:50.915Z,12.68
2022-10-18T19:33:01.136Z,12.71
2022-10-18T19:38:06.192Z,12.72
2022-10-18T19:43:08.855Z,12.75
2022-10-18T19:48:13.520Z,12.75
2022-10-18T19:53:24.765Z,12.77
2022-10-18T19:59:07.151Z,12.80
2022-10-18T20:04:10.679Z,12.79
2022-10-18T20:09:19.397Z,12.78
2022-10-18T20:14:24.302Z,12.78
2022-10-18T20:19:27.056Z,12.78
2022-10-18T20:24:41.115Z,12.80
2022-10-18T20:29:47.150Z,12.82
2022-10-18T20:34:52.890Z,12.84
2022-10-18T20:39:55.749Z,12.87
2022-10-18T20:44:59.441Z,12.88
2022-10-18T20:50:05.568Z,12.86
2022-10-18T20:55:13.130Z,12.86
2022-10-18T21:00:21.543Z,12.86
2022-10-18T21:05:24.608Z,12.88
2022-10-18T21:10:27.435Z,12.89
2022-10-18T21:15:33.216Z,12.88
2022-10-18T21:20:36.682Z,12.88
2022-10-18T21:25:48.247Z,12.89
2022-10-18T21:43:13.088Z,12.88
2022-10-18T21:48:56.531Z,12.90
2022-10-18T22:55:07.469Z,12.57
2022-10-18T23:01:35.890Z,12.53
2022-10-18T23:07:19.204Z,12.48
2022-10-18T23:12:22.199Z,12.46
2022-10-18T23:19:06.009Z,12.47
2022-10-18T23:24:08.892Z,12.46
2022-10-18T23:29:11.803Z,12.48
2022-10-18T23:34:15.305Z,12.49
2022-10-18T23:53:42.457Z,12.24
